Time,TemperatureF,DewpointF,PressureIn,WindDirection,WindDirectionDegrees,WindSpeedMPH,WindSpeedGustMPH,Humidity,HourlyPrecipIn,Conditions,Clouds,dailyrainin,SoftwareType,DateUTC
2013-06-07 00:04:00,55.6,54.5,30.13,North,0,0.0,0.0,96,0.01,,,0.02,pywws,2013-06-07 04:04:00,
2013-06-07 00:09:00,55.6,54.5,30.14,North,0,0.0,0.0,96,0.01,,,0.00,pywws,2013-06-07 04:09:00,
2013-06-07 00:16:00,55.6,54.7,30.12,North,0,0.0,0.0,97,0.01,,,0.00,pywws,2013-06-07 04:16:00,
2013-06-07 00:21:00,55.6,54.7,30.12,North,0,0.0,0.0,97,0.02,,,0.01,pywws,2013-06-07 04:21:00,
2013-06-07 00:27:00,55.6,54.7,30.12,North,0,0.0,0.0,97,0.02,,,0.01,pywws,2013-06-07 04:27:00,
2013-06-07 00:33:00,55.8,54.9,30.12,North,0,0.0,0.0,97,0.02,,,0.01,pywws,2013-06-07 04:33:00,
2013-06-07 00:39:00,55.8,54.9,30.12,North,0,0.0,0.0,97,0.02,,,0.01,pywws,2013-06-07 04:39:00,
2013-06-07 00:45:00,55.8,54.9,30.11,North,0,0.0,0.0,97,0.02,,,0.01,pywws,2013-06-07 04:45:00,
2013-06-07 00:52:00,55.6,54.7,30.11,North,0,0.0,0.0,97,0.01,,,0.01,pywws,2013-06-07 04:52:00,
2013-06-07 00:59:00,55.6,54.7,30.11,North,0,0.0,0.0,97,0.01,,,0.01,pywws,2013-06-07 04:59:00,
2013-06-07 01:04:00,55.8,54.9,30.11,North,0,0.0,0.0,97,0.02,,,0.02,pywws,2013-06-07 05:04:00,
2013-06-07 01:12:00,55.8,54.9,30.11,North,0,0.0,0.0,97,0.02,,,0.02,pywws,2013-06-07 05:12:00,
2013-06-07 01:20:00,55.9,55.1,30.12,North,0,0.0,0.0,97,0.01,,,0.02,pywws,2013-06-07 05:20:00,
2013-06-07 01:26:00,55.9,55.1,30.11,North,0,0.0,0.0,97,0.01,,,0.02,pywws,2013-06-07 05:26:00,
2013-06-07 01:32:00,55.9,55.4,30.11,North,0,0.0,0.0,98,0.01,,,0.02,pywws,2013-06-07 05:32:00,
2013-06-07 01:37:00,55.9,55.4,30.10,North,0,0.0,0.0,98,0.01,,,0.02,pywws,2013-06-07 05:37:00,
2013-06-07 01:44:00,55.9,55.4,30.10,North,0,0.0,0.0,98,0.01,,,0.02,pywws,2013-06-07 05:44:00,
2013-06-07 01:50:00,55.9,55.4,30.10,North,0,0.0,0.0,98,0.01,,,0.02,pywws,2013-06-07 05:50:00,
2013-06-07 01:56:00,55.9,55.4,30.09,North,0,0.0,0.0,98,0.01,,,0.02,pywws,2013-06-07 05:56:00,
2013-06-07 02:03:00,55.9,55.4,30.09,North,0,0.0,0.0,98,0.00,,,0.02,pywws,2013-06-07 06:03:00,
2013-06-07 02:08:00,55.8,55.2,30.07,NE,45,0.0,0.0,98,0.00,,,0.02,pywws,2013-06-07 06:08:00,
2013-06-07 02:14:00,55.9,55.4,30.06,North,0,0.0,0.0,98,0.00,,,0.02,pywws,2013-06-07 06:14:00,
2013-06-07 02:20:00,55.9,55.4,30.07,West,270,0.0,0.0,98,0.00,,,0.02,pywws,2013-06-07 06:20:00,
2013-06-07 02:26:00,55.9,55.4,30.07,North,0,0.0,0.0,98,0.00,,,0.02,pywws,2013-06-07 06:26:00,
2013-06-07 02:32:00,55.9,55.4,30.07,South,180,0.0,0.0,98,0.00,,,0.02,pywws,2013-06-07 06:32:00,
2013-06-07 02:38:00,55.9,55.4,30.07,North,0,0.0,0.0,98,0.00,,,0.02,pywws,2013-06-07 06:38:00,
2013-06-07 02:44:00,56.1,55.6,30.07,North,0,0.0,0.0,98,0.00,,,0.02,pywws,2013-06-07 06:44:00,
2013-06-07 02:49:00,56.1,55.3,30.06,North,0,0.0,0.0,97,0.00,,,0.02,pywws,2013-06-07 06:49:00,
2013-06-07 02:55:00,56.1,55.3,30.06,North,0,0.0,0.0,97,0.00,,,0.02,pywws,2013-06-07 06:55:00,
2013-06-07 03:01:00,56.1,55.3,30.06,West,270,0.0,0.0,97,0.00,,,0.02,pywws,2013-06-07 07:01:00,
2013-06-07 03:07:00,56.3,55.5,30.06,North,0,0.0,0.0,97,0.00,,,0.02,pywws,2013-06-07 07:07:00,
2013-06-07 03:12:00,56.3,55.5,30.06,North,0,0.0,0.0,97,0.00,,,0.02,pywws,2013-06-07 07:12:00,
2013-06-07 03:18:00,56.5,55.6,30.07,North,0,0.0,0.0,97,0.00,,,0.02,pywws,2013-06-07 07:18:00,
2013-06-07 03:31:00,56.3,55.5,30.07,North,0,0.0,0.0,97,0.00,,,0.02,pywws,2013-06-07 07:31:00,
2013-06-07 03:36:00,56.3,55.5,30.07,North,0,0.0,0.0,97,0.00,,,0.02,pywws,2013-06-07 07:36:00,
2013-06-07 03:42:00,56.3,55.5,30.07,North,0,0.0,0.0,97,0.00,,,0.02,pywws,2013-06-07 07:42:00,
2013-06-07 03:48:00,55.9,55.1,30.06,North,0,0.0,0.0,97,0.00,,,0.02,pywws,2013-06-07 07:48:00,
2013-06-07 03:54:00,56.1,55.3,30.07,North,0,0.0,0.0,97,0.00,,,0.02,pywws,2013-06-07 07:54:00,
2013-06-07 04:00:00,56.1,55.3,30.07,North,0,0.0,0.0,97,0.00,,,0.02,pywws,2013-06-07 08:00:00,
2013-06-07 04:08:00,55.9,55.1,30.07,North,0,0.0,0.0,97,0.00,,,0.02,pywws,2013-06-07 08:08:00,
2013-06-07 04:14:00,56.1,55.3,30.07,North,0,0.0,0.0,97,0.00,,,0.02,pywws,2013-06-07 08:14:00,
2013-06-07 04:20:00,55.4,54.6,30.06,NW,315,0.0,0.0,97,0.00,,,0.02,pywws,2013-06-07 08:20:00,
2013-06-07 04:26:00,55.6,54.5,30.06,North,0,0.0,0.0,96,0.00,,,0.02,pywws,2013-06-07 08:26:00,
2013-06-07 04:32:00,55.6,54.5,30.06,North,0,0.0,0.0,96,0.00,,,0.02,pywws,2013-06-07 08:32:00,
2013-06-07 04:37:00,55.6,54.5,30.06,North,0,0.0,0.0,96,0.00,,,0.02,pywws,2013-06-07 08:37:00,
2013-06-07 04:45:00,55.6,54.5,30.07,North,0,0.0,0.0,96,0.00,,,0.02,pywws,2013-06-07 08:45:00,
2013-06-07 04:54:00,55.6,54.5,30.06,North,0,0.0,0.0,96,0.00,,,0.02,pywws,2013-06-07 08:54:00,
2013-06-07 05:00:00,55.6,54.5,30.07,North,0,0.0,0.0,96,0.00,,,0.02,pywws,2013-06-07 09:00:00,
2013-06-07 05:08:00,55.6,54.5,30.07,North,0,0.0,0.0,96,0.00,,,0.02,pywws,2013-06-07 09:08:00,
2013-06-07 05:17:00,55.6,54.5,30.07,North,0,0.0,0.0,96,0.00,,,0.02,pywws,2013-06-07 09:17:00,
2013-06-07 05:24:00,55.6,54.5,30.06,North,0,0.0,0.0,96,0.00,,,0.02,pywws,2013-06-07 09:24:00,
2013-06-07 05:30:00,55.4,54.3,30.06,North,0,0.0,0.0,96,0.00,,,0.02,pywws,2013-06-07 09:30:00,
2013-06-07 05:36:00,55.2,54.1,30.06,North,0,0.0,0.0,96,0.00,,,0.02,pywws,2013-06-07 09:36:00,
2013-06-07 05:42:00,55.2,54.1,30.07,North,0,0.0,0.0,96,0.00,,,0.02,pywws,2013-06-07 09:42:00,
2013-06-07 05:48:00,55.6,54.5,30.06,North,0,0.0,0.0,96,0.00,,,0.02,pywws,2013-06-07 09:48:00,
2013-06-07 05:53:00,55.2,54.1,30.07,North,0,0.0,0.0,96,0.00,,,0.02,pywws,2013-06-07 09:53:00,
2013-06-07 05:59:00,55.4,54.3,30.06,North,0,0.0,0.0,96,0.00,,,0.02,pywws,2013-06-07 09:59:00,
2013-06-07 06:04:00,55.4,54.3,30.06,South,180,0.0,0.0,96,0.00,,,0.02,pywws,2013-06-07 10:04:00,
2013-06-07 06:10:00,55.6,54.5,30.07,North,0,0.0,0.0,96,0.00,,,0.02,pywws,2013-06-07 10:10:00,
2013-06-07 06:16:00,55.6,54.5,30.06,North,0,0.0,0.0,96,0.00,,,0.02,pywws,2013-06-07 10:16:00,
2013-06-07 06:22:00,55.8,54.9,30.07,North,0,0.0,0.0,97,0.00,,,0.02,pywws,2013-06-07 10:22:00,
2013-06-07 06:28:00,55.8,54.9,30.06,East,90,0.0,0.0,97,0.01,,,0.04,pywws,2013-06-07 10:28:00,
2013-06-07 06:33:00,55.8,54.6,30.06,North,0,0.0,0.0,96,0.01,,,0.04,pywws,2013-06-07 10:33:00,
2013-06-07 06:39:00,55.9,54.8,30.06,North,0,0.0,0.0,96,0.01,,,0.04,pywws,2013-06-07 10:39:00,
2013-06-07 06:44:00,55.8,54.6,30.06,North,0,0.0,0.0,96,0.01,,,0.04,pywws,2013-06-07 10:44:00,
2013-06-07 06:50:00,55.8,54.6,30.06,East,90,0.0,0.0,96,0.01,,,0.04,pywws,2013-06-07 10:50:00,
2013-06-07 06:56:00,55.8,54.6,30.06,South,180,0.0,0.0,96,0.01,,,0.04,pywws,2013-06-07 10:56:00,
2013-06-07 07:01:00,55.6,54.5,30.06,North,0,0.0,0.0,96,0.01,,,0.04,pywws,2013-06-07 11:01:00,
2013-06-07 07:07:00,55.8,54.3,30.06,North,0,0.0,0.0,95,0.01,,,0.04,pywws,2013-06-07 11:07:00,
2013-06-07 07:12:00,55.8,54.3,30.06,North,0,0.0,0.0,95,0.01,,,0.04,pywws,2013-06-07 11:12:00,
2013-06-07 07:18:00,55.8,54.3,30.06,North,0,0.0,0.0,95,0.01,,,0.04,pywws,2013-06-07 11:18:00,
2013-06-07 07:24:00,55.8,54.3,30.06,North,0,0.0,0.0,95,0.01,,,0.04,pywws,2013-06-07 11:24:00,
2013-06-07 07:29:00,55.6,54.2,30.06,North,0,0.0,0.0,95,0.00,,,0.04,pywws,2013-06-07 11:29:00,
2013-06-07 07:35:00,55.8,54.3,30.06,North,0,0.0,0.0,95,0.01,,,0.05,pywws,2013-06-07 11:35:00,
2013-06-07 07:40:00,55.4,54.0,30.06,North,0,0.0,0.0,95,0.01,,,0.05,pywws,2013-06-07 11:40:00,
2013-06-07 07:46:00,55.4,54.0,30.06,NE,45,0.0,0.0,95,0.01,,,0.05,pywws,2013-06-07 11:46:00,
2013-06-07 07:52:00,55.8,54.3,30.06,North,0,0.0,0.0,95,0.02,,,0.06,pywws,2013-06-07 11:52:00,
2013-06-07 07:57:00,55.8,54.3,30.06,NW,315,0.0,0.0,95,0.02,,,0.06,pywws,2013-06-07 11:57:00,
2013-06-07 08:03:00,55.8,54.3,30.06,West,270,0.0,0.0,95,0.04,,,0.07,pywws,2013-06-07 12:03:00,
2013-06-07 08:08:00,55.8,54.3,30.06,North,0,0.0,0.0,95,0.04,,,0.07,pywws,2013-06-07 12:08:00,
2013-06-07 08:14:00,55.2,53.8,30.06,West,270,0.0,0.0,95,0.04,,,0.07,pywws,2013-06-07 12:14:00,
2013-06-07 08:20:00,55.2,53.5,30.06,North,0,0.0,0.0,94,0.05,,,0.08,pywws,2013-06-07 12:20:00,
2013-06-07 08:25:00,55.4,53.7,30.06,North,0,0.0,0.0,94,0.05,,,0.08,pywws,2013-06-07 12:25:00,
2013-06-07 08:31:00,55.2,53.5,30.06,North,0,0.0,0.0,94,0.05,,,0.08,pywws,2013-06-07 12:31:00,
2013-06-07 08:36:00,55.0,53.3,30.06,North,0,0.0,0.0,94,0.04,,,0.08,pywws,2013-06-07 12:36:00,
2013-06-07 08:42:00,55.2,53.5,30.06,North,0,0.0,0.0,94,0.04,,,0.08,pywws,2013-06-07 12:42:00,
2013-06-07 08:48:00,55.0,53.3,30.06,North,0,0.0,0.0,94,0.04,,,0.09,pywws,2013-06-07 12:48:00,
2013-06-07 08:53:00,55.0,53.6,30.06,East,90,0.0,0.0,95,0.05,,,0.11,pywws,2013-06-07 12:53:00,
2013-06-07 08:59:00,54.5,53.1,30.06,North,0,0.0,0.0,95,0.04,,,0.11,pywws,2013-06-07 12:59:00,
2013-06-07 09:04:00,54.5,53.1,30.07,North,0,0.0,0.0,95,0.04,,,0.11,pywws,2013-06-07 13:04:00,
2013-06-07 09:10:00,54.3,52.9,30.06,South,180,0.0,0.0,95,0.04,,,0.11,pywws,2013-06-07 13:10:00,
2013-06-07 09:16:00,54.5,53.1,30.06,North,0,0.0,0.0,95,0.04,,,0.11,pywws,2013-06-07 13:16:00,
2013-06-07 09:21:00,54.7,53.0,30.06,North,0,0.0,0.0,94,0.02,,,0.11,pywws,2013-06-07 13:21:00,
2013-06-07 09:27:00,54.9,53.5,30.06,North,0,0.0,0.0,95,0.02,,,0.11,pywws,2013-06-07 13:27:00,
2013-06-07 09:32:00,55.0,53.6,30.06,NE,45,0.0,0.0,95,0.02,,,0.11,pywws,2013-06-07 13:32:00,
2013-06-07 09:38:00,54.9,53.5,30.06,North,0,0.0,0.0,95,0.02,,,0.11,pywws,2013-06-07 13:38:00,
2013-06-07 09:44:00,54.7,53.3,30.06,North,0,0.0,0.0,95,0.02,,,0.11,pywws,2013-06-07 13:44:00,
2013-06-07 09:51:00,54.7,53.3,30.06,East,90,0.0,0.0,95,0.01,,,0.11,pywws,2013-06-07 13:51:00,
2013-06-07 09:56:00,55.0,53.6,30.06,North,0,0.0,0.0,95,0.00,,,0.11,pywws,2013-06-07 13:56:00,
2013-06-07 10:02:00,55.0,53.6,30.06,North,0,0.0,0.0,95,0.00,,,0.11,pywws,2013-06-07 14:02:00,
2013-06-07 10:08:00,55.6,54.2,30.06,NE,45,0.0,0.0,95,0.00,,,0.11,pywws,2013-06-07 14:08:00,
2013-06-07 10:13:00,55.6,54.2,30.06,North,0,0.0,0.0,95,0.00,,,0.11,pywws,2013-06-07 14:13:00,
2013-06-07 10:21:00,55.6,54.2,30.06,North,0,0.0,0.0,95,0.00,,,0.11,pywws,2013-06-07 14:21:00,
2013-06-07 10:27:00,55.8,54.6,30.06,East,90,0.0,0.0,96,0.00,,,0.11,pywws,2013-06-07 14:27:00,
2013-06-07 10:32:00,55.9,54.8,30.06,North,0,0.0,0.0,96,0.00,,,0.11,pywws,2013-06-07 14:32:00,
2013-06-07 10:39:00,55.9,54.8,30.06,North,0,0.0,0.0,96,0.00,,,0.11,pywws,2013-06-07 14:39:00,
2013-06-07 10:45:00,56.3,55.2,30.06,North,0,0.0,0.0,96,0.00,,,0.11,pywws,2013-06-07 14:45:00,
2013-06-07 10:52:00,56.3,55.2,30.06,North,0,0.0,1.6,96,0.00,,,0.11,pywws,2013-06-07 14:52:00,
2013-06-07 10:57:00,56.3,55.2,30.06,NE,45,0.0,0.0,96,0.01,,,0.12,pywws,2013-06-07 14:57:00,
2013-06-07 11:03:00,56.3,55.2,30.06,North,0,0.0,0.0,96,0.02,,,0.13,pywws,2013-06-07 15:03:00,
2013-06-07 11:08:00,56.7,55.5,30.06,North,0,0.0,0.0,96,0.02,,,0.13,pywws,2013-06-07 15:08:00,
2013-06-07 11:14:00,56.8,55.7,30.05,North,0,0.0,0.0,96,0.02,,,0.13,pywws,2013-06-07 15:14:00,
2013-06-07 11:20:00,56.7,55.8,30.06,North,0,0.0,0.0,97,0.02,,,0.13,pywws,2013-06-07 15:20:00,
2013-06-07 11:25:00,56.7,55.8,30.06,East,90,0.0,0.0,97,0.02,,,0.13,pywws,2013-06-07 15:25:00,
2013-06-07 11:31:00,57.0,56.2,30.06,North,0,0.0,0.0,97,0.02,,,0.13,pywws,2013-06-07 15:31:00,
2013-06-07 11:36:00,57.0,56.2,30.06,East,90,0.0,0.0,97,0.02,,,0.13,pywws,2013-06-07 15:36:00,
2013-06-07 11:42:00,57.0,56.2,30.06,East,90,0.0,0.0,97,0.02,,,0.13,pywws,2013-06-07 15:42:00,
2013-06-07 11:47:00,57.0,56.2,30.05,North,0,0.0,0.0,97,0.02,,,0.13,pywws,2013-06-07 15:47:00,
2013-06-07 11:52:00,57.2,56.1,30.06,North,0,0.0,0.0,96,0.02,,,0.13,pywws,2013-06-07 15:52:00,
2013-06-07 12:00:00,57.6,56.4,30.06,North,0,0.0,0.0,96,0.01,,,0.13,pywws,2013-06-07 16:00:00,
2013-06-07 12:05:00,57.7,56.6,30.05,North,0,0.0,0.0,96,0.00,,,0.13,pywws,2013-06-07 16:05:00,
2013-06-07 12:11:00,57.7,56.6,30.05,North,0,0.0,0.0,96,0.00,,,0.13,pywws,2013-06-07 16:11:00,
2013-06-07 12:16:00,57.9,56.8,30.05,NE,45,0.0,0.0,96,0.00,,,0.13,pywws,2013-06-07 16:16:00,
2013-06-07 12:22:00,58.3,57.1,30.05,North,0,0.0,0.0,96,0.00,,,0.13,pywws,2013-06-07 16:22:00,
2013-06-07 12:28:00,57.7,56.6,30.04,NE,45,0.0,0.0,96,0.00,,,0.13,pywws,2013-06-07 16:28:00,
2013-06-07 12:33:00,57.9,56.8,30.04,North,0,0.0,0.0,96,0.00,,,0.13,pywws,2013-06-07 16:33:00,
2013-06-07 12:39:00,58.1,56.7,30.04,North,0,0.0,0.0,95,0.00,,,0.13,pywws,2013-06-07 16:39:00,
2013-06-07 12:44:00,58.1,57.0,30.04,North,0,0.0,0.0,96,0.00,,,0.13,pywws,2013-06-07 16:44:00,
2013-06-07 12:50:00,58.3,56.9,30.04,NW,315,0.0,0.0,95,0.00,,,0.13,pywws,2013-06-07 16:50:00,
2013-06-07 12:56:00,58.3,56.9,30.04,NE,45,0.0,0.7,95,0.00,,,0.13,pywws,2013-06-07 16:56:00,
2013-06-07 13:01:00,58.5,57.0,30.04,North,0,0.0,0.7,95,0.00,,,0.13,pywws,2013-06-07 17:01:00,
2013-06-07 13:07:00,58.5,57.0,30.03,North,0,0.0,0.0,95,0.00,,,0.13,pywws,2013-06-07 17:07:00,
2013-06-07 13:12:00,59.0,57.3,30.03,East,90,0.0,0.0,94,0.00,,,0.13,pywws,2013-06-07 17:12:00,
2013-06-07 13:18:00,58.6,57.2,30.03,NE,45,0.0,0.7,95,0.00,,,0.13,pywws,2013-06-07 17:18:00,
2013-06-07 13:24:00,58.8,57.4,30.03,SW,225,0.0,0.0,95,0.00,,,0.13,pywws,2013-06-07 17:24:00,
2013-06-07 13:29:00,59.0,57.3,30.02,North,0,0.0,0.0,94,0.00,,,0.13,pywws,2013-06-07 17:29:00,
2013-06-07 13:36:00,59.0,57.3,30.03,North,0,0.0,1.6,94,0.00,,,0.13,pywws,2013-06-07 17:36:00,
2013-06-07 13:42:00,59.4,57.6,30.03,North,0,0.0,0.0,94,0.00,,,0.13,pywws,2013-06-07 17:42:00,
2013-06-07 13:49:00,59.2,57.5,30.02,North,0,0.0,0.0,94,0.00,,,0.13,pywws,2013-06-07 17:49:00,
2013-06-07 13:56:00,59.7,58.3,30.02,NE,45,0.0,0.0,95,0.00,,,0.13,pywws,2013-06-07 17:56:00,
2013-06-07 14:02:00,59.5,58.1,30.02,NE,45,0.0,0.0,95,0.00,,,0.13,pywws,2013-06-07 18:02:00,
2013-06-07 14:07:00,59.5,58.1,30.02,North,0,0.0,0.0,95,0.00,,,0.13,pywws,2013-06-07 18:07:00,
2013-06-07 14:12:00,59.5,58.1,30.02,North,0,0.0,0.0,95,0.00,,,0.13,pywws,2013-06-07 18:12:00,
2013-06-07 14:18:00,59.4,57.9,30.02,East,90,0.0,0.7,95,0.00,,,0.13,pywws,2013-06-07 18:18:00,
2013-06-07 14:24:00,59.4,57.9,30.01,North,0,0.7,3.1,95,0.00,,,0.13,pywws,2013-06-07 18:24:00,
2013-06-07 14:29:00,59.5,58.1,30.01,North,0,0.0,0.0,95,0.00,,,0.13,pywws,2013-06-07 18:29:00,
2013-06-07 14:34:00,59.7,58.3,30.01,North,0,0.0,0.7,95,0.00,,,0.13,pywws,2013-06-07 18:34:00,
2013-06-07 14:40:00,59.5,58.1,30.01,West,270,0.0,0.0,95,0.00,,,0.13,pywws,2013-06-07 18:40:00,
2013-06-07 14:45:00,59.4,57.9,30.01,North,0,0.0,0.0,95,0.01,,,0.14,pywws,2013-06-07 18:45:00,
2013-06-07 14:51:00,59.4,57.9,30.00,North,0,0.0,0.7,95,0.02,,,0.15,pywws,2013-06-07 18:51:00,
2013-06-07 14:56:00,59.4,57.9,30.00,North,0,0.0,0.0,95,0.02,,,0.15,pywws,2013-06-07 18:56:00,
2013-06-07 15:01:00,59.2,57.7,30.00,North,0,0.0,0.0,95,0.05,,,0.18,pywws,2013-06-07 19:01:00,
2013-06-07 15:06:00,59.2,57.7,30.00,NW,315,0.0,0.7,95,0.07,,,0.20,pywws,2013-06-07 19:06:00,
2013-06-07 15:12:00,59.0,57.6,30.00,North,0,0.0,0.0,95,0.08,,,0.21,pywws,2013-06-07 19:12:00,
2013-06-07 15:17:00,58.5,57.3,30.00,North,0,0.0,0.0,96,0.11,,,0.24,pywws,2013-06-07 19:17:00,
2013-06-07 15:23:00,58.3,57.1,29.99,North,0,0.0,0.7,96,0.13,,,0.26,pywws,2013-06-07 19:23:00,
2013-06-07 15:28:00,58.3,57.1,29.99,East,90,0.0,0.0,96,0.15,,,0.28,pywws,2013-06-07 19:28:00,
2013-06-07 15:34:00,57.7,56.6,29.99,NE,45,0.0,0.0,96,0.18,,,0.31,pywws,2013-06-07 19:34:00,
2013-06-07 15:39:00,57.9,56.8,29.98,East,90,0.7,5.4,96,0.20,,,0.33,pywws,2013-06-07 19:39:00,
2013-06-07 15:44:00,57.7,56.6,29.98,North,0,0.0,0.0,96,0.20,,,0.34,pywws,2013-06-07 19:44:00,
2013-06-07 15:50:00,57.6,56.4,29.98,North,0,0.0,0.0,96,0.20,,,0.35,pywws,2013-06-07 19:50:00,
2013-06-07 15:56:00,57.4,56.2,29.99,West,270,0.7,4.5,96,0.21,,,0.37,pywws,2013-06-07 19:56:00,
2013-06-07 16:01:00,57.4,56.2,29.98,NW,315,0.0,0.0,96,0.20,,,0.38,pywws,2013-06-07 20:01:00,
2013-06-07 16:07:00,57.2,56.1,29.98,SE,135,0.0,0.7,96,0.20,,,0.40,pywws,2013-06-07 20:07:00,
2013-06-07 16:12:00,57.2,56.1,29.98,West,270,0.0,0.0,96,0.20,,,0.41,pywws,2013-06-07 20:12:00,
2013-06-07 16:19:00,57.2,56.1,29.98,North,0,0.0,0.0,96,0.20,,,0.44,pywws,2013-06-07 20:19:00,
2013-06-07 16:24:00,56.8,56.0,29.98,NE,45,0.0,3.8,97,0.19,,,0.45,pywws,2013-06-07 20:24:00,
2013-06-07 16:30:00,56.8,56.0,29.98,North,0,0.0,0.0,97,0.18,,,0.46,pywws,2013-06-07 20:30:00,
2013-06-07 16:36:00,56.7,55.8,29.98,NW,315,0.0,0.0,97,0.15,,,0.47,pywws,2013-06-07 20:36:00,
2013-06-07 16:41:00,56.7,55.8,29.99,NE,45,0.0,0.7,97,0.15,,,0.48,pywws,2013-06-07 20:41:00,
2013-06-07 16:47:00,56.7,55.8,29.98,North,0,0.0,0.0,97,0.14,,,0.50,pywws,2013-06-07 20:47:00,
2013-06-07 16:52:00,56.7,55.8,29.98,East,90,0.0,0.0,97,0.15,,,0.51,pywws,2013-06-07 20:52:00,
2013-06-07 16:58:00,56.7,55.8,29.98,North,0,0.0,0.0,97,0.14,,,0.51,pywws,2013-06-07 20:58:00,
2013-06-07 17:04:00,56.7,55.8,29.97,West,270,0.0,0.0,97,0.13,,,0.52,pywws,2013-06-07 21:04:00,
2013-06-07 17:10:00,56.5,55.6,29.98,North,0,0.0,0.7,97,0.13,,,0.53,pywws,2013-06-07 21:10:00,
2013-06-07 17:16:00,56.5,55.6,29.97,North,0,0.0,0.0,97,0.13,,,0.54,pywws,2013-06-07 21:16:00,
2013-06-07 17:22:00,56.3,55.5,29.98,North,0,0.0,0.0,97,0.12,,,0.56,pywws,2013-06-07 21:22:00,
2013-06-07 17:28:00,56.5,55.6,29.98,NW,315,0.0,0.0,97,0.12,,,0.57,pywws,2013-06-07 21:28:00,
2013-06-07 17:34:00,56.5,55.6,29.97,NW,315,0.0,0.7,97,0.11,,,0.57,pywws,2013-06-07 21:34:00,
2013-06-07 17:40:00,56.1,55.3,29.97,North,0,0.0,0.7,97,0.11,,,0.58,pywws,2013-06-07 21:40:00,
2013-06-07 17:45:00,56.1,55.3,29.97,North,0,0.0,0.0,97,0.09,,,0.59,pywws,2013-06-07 21:45:00,
2013-06-07 17:51:00,55.9,55.1,29.97,East,90,0.0,0.0,97,0.09,,,0.59,pywws,2013-06-07 21:51:00,
2013-06-07 17:56:00,56.1,55.3,29.97,North,0,0.0,0.7,97,0.11,,,0.61,pywws,2013-06-07 21:56:00,
2013-06-07 18:02:00,55.9,55.1,29.97,NE,45,0.0,0.0,97,0.09,,,0.61,pywws,2013-06-07 22:02:00,
2013-06-07 18:08:00,55.9,55.1,29.96,North,0,0.0,3.8,97,0.11,,,0.63,pywws,2013-06-07 22:08:00,
2013-06-07 18:13:00,55.8,54.9,29.96,North,0,0.0,0.0,97,0.11,,,0.64,pywws,2013-06-07 22:13:00,
2013-06-07 18:19:00,55.8,54.9,29.96,North,0,0.0,0.0,97,0.09,,,0.64,pywws,2013-06-07 22:19:00,
2013-06-07 18:24:00,55.8,54.9,29.96,North,0,0.0,0.0,97,0.11,,,0.66,pywws,2013-06-07 22:24:00,
2013-06-07 18:30:00,55.6,54.7,29.96,West,270,0.0,0.0,97,0.12,,,0.69,pywws,2013-06-07 22:30:00,
2013-06-07 18:36:00,55.6,54.7,29.97,North,0,0.0,0.0,97,0.14,,,0.72,pywws,2013-06-07 22:36:00,
2013-06-07 18:41:00,55.4,54.6,29.96,North,0,0.0,0.0,97,0.18,,,0.76,pywws,2013-06-07 22:41:00,
2013-06-07 18:46:00,55.2,54.4,29.97,North,0,1.6,6.9,97,0.18,,,0.77,pywws,2013-06-07 22:46:00,
2013-06-07 18:52:00,55.2,54.4,29.96,North,0,0.0,0.0,97,0.18,,,0.78,pywws,2013-06-07 22:52:00,
2013-06-07 18:58:00,55.2,54.4,29.96,North,0,0.0,0.0,97,0.19,,,0.80,pywws,2013-06-07 22:58:00,
2013-06-07 19:04:00,55.0,54.2,29.95,North,0,0.0,0.0,97,0.21,,,0.83,pywws,2013-06-07 23:04:00,
2013-06-07 19:09:00,55.0,54.2,29.95,North,0,0.0,0.0,97,0.22,,,0.85,pywws,2013-06-07 23:09:00,
2013-06-07 19:16:00,55.0,54.2,29.94,North,0,0.0,0.0,97,0.24,,,0.87,pywws,2013-06-07 23:16:00,
2013-06-07 19:22:00,54.9,54.0,29.93,North,0,0.0,1.6,97,0.24,,,0.89,pywws,2013-06-07 23:22:00,
2013-06-07 19:27:00,54.7,53.8,29.93,NW,315,0.0,0.0,97,0.24,,,0.90,pywws,2013-06-07 23:27:00,
2013-06-07 19:32:00,54.7,53.8,29.93,SE,135,0.7,6.0,97,0.20,,,0.90,pywws,2013-06-07 23:32:00,
2013-06-07 19:38:00,54.7,53.8,29.93,North,0,0.7,3.8,97,0.17,,,0.90,pywws,2013-06-07 23:38:00,
2013-06-07 19:44:00,54.5,53.7,29.93,North,0,0.0,0.0,97,0.15,,,0.91,pywws,2013-06-07 23:44:00,
2013-06-07 19:50:00,54.5,53.7,29.91,North,0,0.0,0.0,97,0.13,,,0.91,pywws,2013-06-07 23:50:00,
2013-06-07 19:55:00,54.5,53.7,29.92,North,0,0.0,0.7,97,0.14,,,0.93,pywws,2013-06-07 23:55:00,
2013-06-07 20:00:00,54.5,53.7,29.93,East,90,0.7,2.2,97,0.14,,,0.96,pywws,2013-06-08 00:00:00,
2013-06-07 20:06:00,54.5,53.7,29.92,East,90,0.7,5.4,97,0.14,,,0.98,pywws,2013-06-08 00:06:00,
2013-06-07 20:11:00,54.5,53.7,29.92,North,0,0.0,0.0,97,0.13,,,0.99,pywws,2013-06-08 00:11:00,
2013-06-07 20:16:00,54.1,53.3,29.91,North,0,0.0,0.0,97,0.14,,,1.02,pywws,2013-06-08 00:16:00,
2013-06-07 20:22:00,54.0,53.1,29.90,North,0,0.0,0.0,97,0.15,,,1.04,pywws,2013-06-08 00:22:00,
2013-06-07 20:28:00,54.0,53.1,29.91,East,90,0.0,1.6,97,0.17,,,1.06,pywws,2013-06-08 00:28:00,
2013-06-07 20:34:00,53.6,52.8,29.90,SW,225,0.0,0.7,97,0.18,,,1.07,pywws,2013-06-08 00:34:00,
2013-06-07 20:40:00,53.6,52.8,29.91,East,90,0.0,0.7,97,0.21,,,1.11,pywws,2013-06-08 00:40:00,
2013-06-07 20:45:00,53.6,52.8,29.93,North,0,0.0,0.0,97,0.21,,,1.12,pywws,2013-06-08 00:45:00,
2013-06-07 20:51:00,53.6,52.8,29.92,North,0,0.0,0.0,97,0.25,,,1.16,pywws,2013-06-08 00:51:00,
2013-06-07 20:56:00,53.2,52.7,29.91,North,0,0.0,0.0,98,0.26,,,1.20,pywws,2013-06-08 00:56:00,
2013-06-07 21:02:00,53.2,52.7,29.92,North,0,0.0,0.0,98,0.31,,,1.26,pywws,2013-06-08 01:02:00,
2013-06-07 21:07:00,53.2,52.7,29.92,East,90,0.0,0.0,98,0.31,,,1.29,pywws,2013-06-08 01:07:00,
2013-06-07 21:12:00,53.1,52.5,29.92,East,90,0.0,0.0,98,0.33,,,1.33,pywws,2013-06-08 01:12:00,
2013-06-07 21:18:00,53.1,52.5,29.91,North,0,0.0,0.0,98,0.35,,,1.37,pywws,2013-06-08 01:18:00,
2013-06-07 21:24:00,53.1,52.5,29.91,West,270,0.0,0.0,98,0.35,,,1.41,pywws,2013-06-08 01:24:00,
2013-06-07 21:29:00,52.9,52.3,29.91,North,0,0.0,0.0,98,0.35,,,1.42,pywws,2013-06-08 01:29:00,
2013-06-07 21:35:00,52.9,52.3,29.90,NE,45,0.0,0.0,98,0.34,,,1.42,pywws,2013-06-08 01:35:00,
2013-06-07 21:40:00,52.9,52.3,29.91,North,0,0.0,0.0,98,0.32,,,1.43,pywws,2013-06-08 01:40:00,
2013-06-07 21:46:00,52.9,52.3,29.91,North,0,0.0,0.0,98,0.32,,,1.44,pywws,2013-06-08 01:46:00,
2013-06-07 21:51:00,53.1,52.5,29.90,East,90,0.0,0.0,98,0.30,,,1.44,pywws,2013-06-08 01:51:00,
2013-06-07 21:56:00,52.9,52.3,29.91,North,0,0.0,0.0,98,0.24,,,1.44,pywws,2013-06-08 01:56:00,
2013-06-07 22:02:00,52.9,52.3,29.90,North,0,0.0,0.0,98,0.20,,,1.45,pywws,2013-06-08 02:02:00,
2013-06-07 22:08:00,52.9,52.3,29.89,West,270,0.0,0.0,98,0.15,,,1.46,pywws,2013-06-08 02:08:00,
2013-06-07 22:14:00,52.9,52.3,29.89,North,0,0.0,0.0,98,0.12,,,1.46,pywws,2013-06-08 02:14:00,
2013-06-07 22:19:00,52.9,52.3,29.89,NE,45,0.0,0.0,98,0.09,,,1.46,pywws,2013-06-08 02:19:00,
2013-06-07 22:24:00,52.7,52.2,29.88,NE,45,0.0,0.0,98,0.07,,,1.48,pywws,2013-06-08 02:24:00,
2013-06-07 22:30:00,52.9,52.3,29.89,North,0,0.0,0.0,98,0.06,,,1.48,pywws,2013-06-08 02:30:00,
2013-06-07 22:35:00,52.9,52.3,29.88,North,0,0.0,0.0,98,0.06,,,1.48,pywws,2013-06-08 02:35:00,
2013-06-07 22:40:00,52.7,52.2,29.88,North,0,0.0,0.0,98,0.06,,,1.49,pywws,2013-06-08 02:40:00,
2013-06-07 22:46:00,52.9,52.3,29.88,North,0,0.0,0.0,98,0.07,,,1.50,pywws,2013-06-08 02:46:00,
2013-06-07 22:52:00,52.7,52.2,29.88,North,0,0.0,0.0,98,0.09,,,1.54,pywws,2013-06-08 02:52:00,
2013-06-07 22:57:00,52.7,52.2,29.86,North,0,0.0,0.0,98,0.11,,,1.56,pywws,2013-06-08 02:57:00,
2013-06-07 23:04:00,52.7,52.2,29.86,North,0,0.0,0.7,98,0.14,,,1.59,pywws,2013-06-08 03:04:00,
2013-06-07 23:09:00,52.7,52.2,29.87,North,0,0.0,0.0,98,0.17,,,1.63,pywws,2013-06-08 03:09:00,
2013-06-07 23:16:00,52.7,52.2,29.86,East,90,0.0,0.0,98,0.20,,,1.67,pywws,2013-06-08 03:16:00,
2013-06-07 23:22:00,52.7,52.2,29.85,East,90,0.0,0.0,98,0.20,,,1.68,pywws,2013-06-08 03:22:00,
2013-06-07 23:27:00,52.7,52.2,29.85,East,90,0.0,0.0,98,0.21,,,1.69,pywws,2013-06-08 03:27:00,
2013-06-07 23:33:00,52.7,52.2,29.84,North,0,0.0,0.0,98,0.21,,,1.69,pywws,2013-06-08 03:33:00,
2013-06-07 23:38:00,52.7,52.2,29.83,SE,135,0.0,1.6,98,0.21,,,1.69,pywws,2013-06-08 03:38:00,
2013-06-07 23:44:00,52.7,52.2,29.84,North,0,0.0,0.0,98,0.25,,,1.75,pywws,2013-06-08 03:44:00,
2013-06-07 23:50:00,52.7,52.2,29.84,North,0,0.0,0.0,98,0.25,,,1.77,pywws,2013-06-08 03:50:00,
2013-06-07 23:56:00,52.7,52.2,29.84,East,90,0.0,0.0,98,0.24,,,1.78,pywws,2013-06-08 03:56:00,